Jacksonville, FL

2:15 PM EDT on August 23, 2014 (GMT -0400)
Jacksonville International | Change Station
CLOSE
Current Station
Airport
Location: Jacksonville,
Elevation: 30 ft
Nearby Weather Stations
Active Advisory: Heat Advisory

Elev 30 ft 30.49 °N, 81.69 °W | Updated 19 minutes ago

Mostly Cloudy
Mostly Cloudy
96 °F
Feels Like 104 °F
N
4
Wind Variable Wind from Variable

Today
High -- | Low -- °F
--% Chance of Precip.
Yesterday
High -- | Low -- °F
Precip. -- in
6:58 AM 8:00 PM
Waning Crescent, 3% visible
Pressure 29.92 in
Visibility 10.0 miles
Clouds Scattered Clouds 5000 ft
Mostly Cloudy 25000 ft
Heat Index 104 °F
Dew Point 71 °F
Humidity 44%
Rainfall 0.00 in
Snow Depth Not available.
UV 8 out of 12
Pollen 8.00 out of 12
Ozone Good
PM2.5 Moderate
Flu Activity Not available.
METAR KJAX 231756Z VRB03KT 10SM SCT050 BKN250 36/22 A2992 RMK AO2 SLP131 T03560217 10361 20250 58015

More Conditions Fewer Conditions

Pressure 29.92 in
Visibility 10.0 miles
Clouds Scattered Clouds 5000 ft
Mostly Cloudy 25000 ft
Heat Index 104 °F
Dew Point 71 °F
Humidity 44%
Rainfall 0.00 in
Snow Depth Not available.
UV 8 out of 12
Pollen 8.00 out of 12
Ozone Good
PM2.5 Moderate
Flu Activity Not available.
METAR KJAX 231756Z VRB03KT 10SM SCT050 BKN250 36/22 A2992 RMK AO2 SLP131 T03560217 10361 20250 58015

More Conditions Fewer Conditions

10-Day Weather Forecast

Almanac

Astronomy

Aug. 23, 2014 Rise Set
Actual Time 6:58 AM EDT 8:00 PM EDT
Civil Twilight 6:33 AM EDT 8:24 PM EDT
Nautical Twilight 6:03 AM EDT 8:54 PM EDT
Astronomical Twilight 5:33 AM EDT 9:24 PM EDT
Moon 5:15 AM EDT 6:42 PM EDT
Length of Visible Light 13h 51m
Length of Day
13h 01m
Tomorrow will be 1m 42s shorter.
Waning Crescent, 3% of the Moon is Illuminated
Today
Waning Crescent
Aug 25
New
Sep 2
First Quarter
Sep 8
Full
Sep 15
Last Quarter

Today's Extremes

State Highs State Lows

Community

WunderPhotos

Upload Photos

1,746,551 photos uploaded!

WunderBlogs® & News

By Dr. Jeff Masters
Director of Meteorology, Weather Underground
By Kari Strenfel
Meteorologist, Weather Underground
By Christopher C. Burt
Weather Historian, Weather Underground
August 23, 2014
August 23, 2014
August 23, 2014

Nearby

Air Quality

  Air Quality AQ Index Pollutant
Yesterday Moderate
OZONE
Yesterday Moderate
PM2.5
Current Moderate
PM2.5
Current Good
OZONE
Saturday Moderate
OZONE
Saturday Moderate
PM2.5
Sunday Moderate
OZONE
Sunday Moderate
PM2.5
Monday Good
OZONE
Monday Good
PM2.5

Snow Depth

Station Depth Elevation
No new snow has been reported.

Earthquake Activity

City Distance Mag. Time & Date
No recent earthquake activity has been reported nearby.
Minimum magnitude displayed is 2.5.

Coastal Water Temperatures

Place Temperature
Mayport (Bar Pilots Dock), FL 84.9 °F
Fernandina Beach, FL 86.0 °F

Nearby Weather Stations